Airfield :
LOGIN :

Register | Disclaimer

   EN    FR    IT 

 










Legend :    VFR   Marginal VFR   IFR   Intensive IFR   Very Intensive IFR
Visi :
Ceiling :
>= 8 km
>= 3000ft
5 to 8 km
1000 to 3000 ft
1500m to 5 km
500 to 1000 ft
800 to 1500m
200 to 500 ft
< 800m
< 200 ft
Symbols :   Thunderstorms  Fog  Heavy snow  Heavy precipitations  Wind > 20 kt
SIGMETs :     Misc.  Thunderstorms  Icing  Turbulence  Mountain Waves  Volcanic Ashes






- Airport Elevation : 586 ft


LIMN - Cameri Air Force Base

CURRENT METAR :
  • 021155Z /////KT 8000 FEW015 SCT040 07/03 Q1018

EXPIRED METARs :
  • 021055Z /////KT 6000 FEW015 SCT040 07/03 Q1018
  • 020955Z /////KT 5000 BR BKN040 06/04 Q1018 RMK BKN VIS MIN 5000 WHT

TAF COR TAF LIMN
Valid from the 02 at 12:00 until the 02 at 21:00 UTC


021112Z 0212/0221 01005KT 6000 BKN040
TEMPO 0216/0218 1500 DZ BR BKN015
PROB40
TEMPO 0218/0221 0800 FG BKN008



MET'MAP, your aeronautical weather chart ! - Copyright ORBIFLY December 2007 - Disclaimer

ORBIFLY MET'MAP TEAM :

Programming & Development : Alexandra Zaïnal
Original concept : Baudouin d'Aumeries
Technical & hardware support : Manuel Goepfert
Assistance : Marc-Olivier Méhu




SOURCES & CREDITS :

   NOAA